Airfield :
LOGIN :

Register | Disclaimer

   EN    FR    IT 

 










Legend :    VFR   Marginal VFR   IFR   Intensive IFR   Very Intensive IFR
Visi :
Ceiling :
>= 8 km
>= 3000ft
5 to 8 km
1000 to 3000 ft
1500m to 5 km
500 to 1000 ft
800 to 1500m
200 to 500 ft
< 800m
< 200 ft
Symbols :   Thunderstorms  Fog  Heavy snow  Heavy precipitations  Wind > 20 kt
SIGMETs :     Misc.  Thunderstorms  Icing  Turbulence  Mountain Waves  Volcanic Ashes






- Airport Elevation : 2096 ft
- IATA code : AUR


LFLW - Aurillac

CURRENT METAR :
  • 301330Z AUTO VRB03KT CAVOK 08/02 Q1016 NOSIG

EXPIRED METARs :
  • 301300Z AUTO 32003KT 270V360 CAVOK 08/01 Q1016 NOSIG
  • 301230Z AUTO 31003KT 280V360 CAVOK 07/01 Q1017 NOSIG
  • 301200Z AUTO 30004KT 240V340 CAVOK 07/02 Q1017 NOSIG
  • 301130Z AUTO 29003KT 250V350 CAVOK 05/02 Q1017 NOSIG
  • 301100Z AUTO VRB02KT CAVOK 04/03 Q1017 NOSIG

TAF TAF LFLW
Valid from the 30 at 12:00 until the 30 at 21:00 UTC


301100Z 3012/3021 VRB03KT CAVOK
PROB40
TEMPO 3018/3021 0500 FG VV///



MET'MAP, your aeronautical weather chart ! - Copyright ORBIFLY December 2007 - Disclaimer

ORBIFLY MET'MAP TEAM :

Programming & Development : Alexandra Zaïnal
Original concept : Baudouin d'Aumeries
Technical & hardware support : Manuel Goepfert
Assistance : Marc-Olivier Méhu




SOURCES & CREDITS :

   NOAA